createdAt,value
2022-09-24T00:10:53.987Z,552.28381
2022-09-24T00:25:56.324Z,501.99457
2022-09-24T00:40:58.790Z,388.84372
2022-09-24T00:56:01.302Z,325.98215
2022-09-24T01:11:03.557Z,189.48274
2022-09-24T01:26:05.837Z,116.74292
2022-09-24T01:41:08.370Z,26.94067
2022-09-24T01:56:10.652Z,8.0822
2022-09-24T02:11:12.949Z,0.89802
2022-09-24T02:26:15.225Z,0
2022-09-24T02:41:17.515Z,0
2022-09-24T02:56:19.820Z,0
2022-09-24T03:11:22.104Z,0
2022-09-24T03:26:24.418Z,0
2022-09-24T03:41:26.723Z,0
2022-09-24T03:56:29.008Z,0
2022-09-24T04:11:31.334Z,0
2022-09-24T04:26:33.681Z,0
2022-09-24T04:41:35.967Z,0
2022-09-24T04:56:38.291Z,0
2022-09-24T05:11:40.878Z,0
2022-09-24T05:26:43.376Z,0
2022-09-24T05:41:45.730Z,0
2022-09-24T05:56:48.015Z,0
2022-09-24T06:11:50.305Z,0
2022-09-24T06:26:52.626Z,0
2022-09-24T06:41:54.947Z,0
2022-09-24T06:56:57.430Z,0
2022-09-24T07:11:59.806Z,0
2022-09-24T07:27:02.140Z,0
2022-09-24T07:42:04.418Z,0
2022-09-24T07:57:06.715Z,0
2022-09-24T08:12:09.021Z,0
2022-09-24T08:27:16.410Z,0
2022-09-24T08:42:19.753Z,0
2022-09-24T08:57:22.260Z,0
2022-09-24T09:12:24.813Z,0
2022-09-24T09:27:27.091Z,0
2022-09-24T09:42:29.441Z,0
2022-09-24T09:57:31.884Z,0
2022-09-24T10:12:34.221Z,0
2022-09-24T10:27:36.548Z,0
2022-09-24T10:42:38.860Z,0
2022-09-24T10:57:41.175Z,0
2022-09-24T11:12:43.453Z,0
2022-09-24T11:27:45.763Z,0
2022-09-24T11:42:48.076Z,0
2022-09-24T11:57:50.452Z,0
2022-09-24T12:12:52.790Z,0
2022-09-24T12:27:55.148Z,0
2022-09-24T12:42:57.428Z,0
2022-09-24T12:57:59.712Z,0
2022-09-24T13:13:01.967Z,0
2022-09-24T13:28:04.259Z,4.49011
2022-09-24T13:43:06.570Z,21.55254
2022-09-24T13:58:08.780Z,35.02288
2022-09-24T14:13:11.005Z,63.75959
2022-09-24T14:28:13.216Z,84.41412
2022-09-24T14:43:15.460Z,454.39938
2022-09-24T14:58:17.724Z,457.99146
2022-09-24T15:13:19.938Z,525.34314
2022-09-24T15:28:22.200Z,733.68439
2022-09-24T15:43:24.411Z,1047.09424
2022-09-24T15:58:26.647Z,1456.59241
2022-09-24T16:13:28.931Z,2300.73364
2022-09-24T16:28:31.175Z,8953.28418
2022-09-24T16:43:33.491Z,2969.76025
2022-09-24T16:58:35.729Z,2683.29126
2022-09-24T17:13:37.967Z,2467.76587
2022-09-24T17:28:40.153Z,2568.34424
2022-09-24T17:43:42.458Z,4006.07837
2022-09-24T17:58:44.712Z,2561.16016
2022-09-24T18:13:46.892Z,3639.68506
2022-09-24T18:28:49.306Z,2744.35669
2022-09-24T18:43:51.672Z,2798.23804
2022-09-24T18:58:53.902Z,3825.57568
2022-09-24T19:13:56.330Z,3112.5459
2022-09-24T19:28:58.537Z,2935.6355
2022-09-24T19:44:05.939Z,6782.76367
2022-09-24T19:59:10.694Z,7202.14014
2022-09-24T20:14:13.072Z,7388.92871
2022-09-24T20:29:15.304Z,7014.45361
2022-09-24T20:44:17.495Z,5287.55615
2022-09-24T20:59:19.913Z,3275.08789
2022-09-24T21:14:22.198Z,2377.96362
2022-09-24T21:29:24.557Z,1777.18652
2022-09-24T21:44:26.741Z,1925.36023
2022-09-24T21:59:29.104Z,1903.80762
2022-09-24T22:14:31.298Z,1642.48315
2022-09-24T22:29:33.565Z,2356.41089
2022-09-24T22:44:35.933Z,2248.64819
2022-09-24T22:59:38.528Z,2492.9104
2022-09-24T23:14:40.725Z,4803.52197
2022-09-24T23:29:42.954Z,3880.35522
2022-09-24T23:44:45.222Z,1299.43848
2022-09-24T23:59:47.465Z,1386.54675
